Realtime data from ferrybox TransPaper


TransPaper. Data shown below have not been quality controlled.

Date Time
(UTC)
Region
(Nr)
Temp
(°C)
Salinity
(PSU)
Cphyl A
(µg/l)
Phyco
(µg/l)
OxyS
(proc)
Turb
(NTU)
2018-06-13 00:19:23 4 10.43 3.70 20.16 3.84 - 1.08
2018-06-12 21:02:15 3 7.15 2.91 30.79 3.80 - 1.07
2018-06-12 16:49:01 2 7.03 2.85 24.35 3.79 - 1.04
2018-06-12 13:42:53 1 8.48 2.20 18.70 3.83 - 1.12
2018-06-11 05:19:41 1 8.34 2.15 20.59 4.41 - 1.12
2018-06-11 02:42:18 2 5.12 2.87 27.94 4.42 - 1.06
2018-06-10 22:56:07 3 6.11 2.91 26.85 4.41 - 1.06
2018-06-10 19:47:05 4 9.70 3.75 20.41 4.36 - 1.13
2018-06-10 16:52:51 5 9.96 4.57 11.75 4.29 - 1.05
2018-06-10 14:10:54 6 10.86 5.32 9.43 4.24 - 0.98
2018-06-10 10:45:53 7 10.31 5.52 9.68 4.22 - 0.98
2018-06-10 06:58:20 8 10.57 5.56 11.07 4.21 - 1.01
2018-06-10 04:13:25 9 10.64 5.87 14.50 4.23 - 1.13
2018-06-10 02:06:17 10 13.04 6.69 19.29 4.27 - 1.23
2018-06-10 00:07:36 11 13.35 6.59 19.13 4.32 - 1.18
2018-06-09 22:05:59 12 14.24 6.88 15.91 4.33 - 1.00
2018-06-09 18:33:41 13 14.92 6.99 11.09 4.24 - 0.98
2018-06-09 15:31:25 14 15.77 6.95 9.19 4.16 - 1.01
2018-06-09 11:07:07 15 16.59 7.48 9.21 4.06 - 0.96
2018-06-09 07:47:04 16 16.94 7.40 10.37 3.97 - 1.03
2018-06-07 22:56:12 16 16.33 7.35 16.18 4.25 - 1.02
2018-06-07 18:46:39 15 16.12 7.25 11.76 4.20 - 1.01
2018-06-07 13:27:46 14 14.18 6.83 10.31 4.03 - 1.00
2018-06-07 09:17:40 13 14.49 6.84 9.01 3.88 - 0.98
2018-06-07 04:44:45 12 13.98 6.82 12.52 3.75 - 1.05